Marcel — ONDP — position and weather

sailwx.info

Track history (hours):
 
Tides and Currents Weather Stations Pressure Air Temp Water Temp Dewpoint Dewpoint Depression Visibility Wind Speed Wind Dir Waves Ship Positions

Marcel

Last reported at 2014-Jul-12 04:33 UTC. Time now 2014-Jul-23 15:32 UTC.
Position N 35°42' W 008°58'.
Warning: this ship's position is 11 days out of date.

Length 88 m; draft 5.6 m.

Type: Cargo ship. MMSI: 205439000.

Date/timePositionNaut miles runAvg speedWind from/ knotsBaromVisibWave heightAir tempDewpointWater temp
2014-Jul-12 04:33N 35°42' W 008°58'10 9.5
2014-Jul-12 03:33N 35°50' W 009°04'10 9.5
2014-Jul-12 02:33N 35°59' W 009°10'10 9.6
2014-Jul-12 01:33N 36°07' W 009°16'10 9.7
2014-Jul-12 00:33N 36°15' W 009°22'10 9.8
2014-Jul-11 23:33N 36°24' W 009°28'10 9.5
2014-Jul-11 22:33N 36°32' W 009°34'9 9.3
2014-Jul-11 21:32N 36°40' W 009°40'9 9.0
2014-Jul-11 20:33N 36°49' W 009°43'9 9.3
2014-Jul-11 19:33N 36°58' W 009°45'9 9.5
2014-Jul-11 18:33N 37°07' W 009°47'9 9.3
2014-Jul-11 17:33N 37°16' W 009°48'9 9.1
2014-Jul-11 16:33N 37°25' W 009°50'9 9.3
2014-Jul-11 15:33N 37°35' W 009°52'10 9.6
2014-Jul-11 14:32N 37°44' W 009°54'10 9.7
2014-Jul-11 13:33N 37°54' W 009°56'10 9.7
2014-Jul-11 12:33N 38°03' W 009°57'10 9.7
2014-Jul-11 11:33N 38°13' W 009°59'10 9.7
2014-Jul-11 10:33N 38°23' W 010°01'10 9.8
2014-Jul-11 09:33N 38°32' W 010°03'10 9.5
2014-Jul-11 08:32N 38°42' W 010°05'  
2014-Jul-09 04:08N 43°46' W 005°49'  
2014-Jul-04 17:25N 50°32' E 000°06'910.2
2014-Jul-04 16:33N 50°34' E 000°19'9 9.5
2014-Jul-04 15:33N 50°37' E 000°34'9 9.0
2014-Jul-04 14:33N 50°42' E 000°45'9 9.3
2014-Jul-04 13:33N 50°48' E 000°56'1510.5
2014-Jul-04 12:07N 50°58' E 001°14'712.0
2014-Jul-04 11:33N 51°02' E 001°23'1312.7
2014-Jul-04 10:33N 51°10' E 001°38'1211.5
2014-Jul-04 09:33N 51°19' E 001°51'9 9.4
2014-Jul-04 08:33N 51°24' E 002°03'11 9.9
2014-Jul-04 07:29N 51°21' E 002°19'9 9.3
2014-Jul-04 06:33N 51°23' E 002°33'9 9.0
2014-Jul-04 05:33N 51°22' E 002°47'9 8.8
2014-Jul-04 04:32N 51°22' E 003°02'8 8.1
2014-Jul-04 03:33N 51°23' E 003°14'8 7.9
2014-Jul-04 02:33N 51°24' E 003°27'8 8.1
2014-Jul-04 01:33N 51°25' E 003°40'9 8.9
2014-Jul-04 00:33N 51°21' E 003°53'6 6.4
2014-Jul-03 23:34N 51°23' E 004°02'9 9.1
2014-Jul-03 22:33N 51°20' E 004°16'4 4.3
2014-Jul-03 21:33N 51°17' E 004°20'0 0.0
2014-Jul-03 20:34N 51°17' E 004°20'0 0.0
2014-Jul-03 19:34N 51°17' E 004°20'2 2.4
2014-Jul-03 18:33N 51°15' E 004°22'0 0.0
2014-Jul-03 17:31N 51°15' E 004°22'0 0.0
2014-Jul-03 16:32N 51°15' E 004°22'0 0.0
2014-Jul-03 15:33N 51°15' E 004°22'0 0.0
2014-Jul-03 14:30N 51°15' E 004°22'0 0.0
2014-Jul-03 13:27N 51°15' E 004°22'0 0.0
2014-Jul-03 12:32N 51°15' E 004°22'0 0.0
2014-Jul-03 11:26N 51°15' E 004°22'0 0.0
2014-Jul-03 10:30N 51°15' E 004°22'0 0.0
2014-Jul-03 09:26N 51°15' E 004°22'0 0.0
2014-Jul-03 08:31N 51°15' E 004°22'0 0.0
2014-Jul-03 07:33N 51°15' E 004°22'0 0.1
2014-Jul-03 06:30N 51°15' E 004°22'0 0.0
2014-Jul-03 05:28N 51°15' E 004°22'0 0.0
2014-Jul-03 04:32N 51°15' E 004°22'0 0.0
2014-Jul-03 03:33N 51°15' E 004°22'0 0.0
2014-Jul-03 02:30N 51°15' E 004°22'0 0.0
2014-Jul-03 01:26N 51°15' E 004°22'0 0.0
2014-Jul-03 00:30N 51°15' E 004°22'0 0.0
2014-Jul-02 23:28N 51°15' E 004°22'0 0.0
2014-Jul-02 22:30N 51°15' E 004°22'0 0.0
2014-Jul-02 21:27N 51°15' E 004°22'0 0.0
2014-Jul-02 20:31N 51°15' E 004°22'0 0.0
2014-Jul-02 19:33N 51°15' E 004°22'0 0.0
2014-Jul-02 18:31N 51°15' E 004°22'0 0.0
2014-Jul-02 17:28N 51°15' E 004°22'0 0.0
2014-Jul-02 16:32N 51°15' E 004°22'0 0.0
2014-Jul-02 15:33N 51°15' E 004°22'0 0.0
2014-Jul-02 14:31N 51°15' E 004°22'0 0.0
2014-Jul-02 13:27N 51°15' E 004°22'0 0.0
2014-Jul-02 12:31N 51°15' E 004°22'0 0.0
2014-Jul-02 11:27N 51°15' E 004°22'0 0.0
2014-Jul-02 10:29N 51°15' E 004°22'0 0.0
2014-Jul-02 09:31N 51°15' E 004°22'0 0.0
2014-Jul-02 08:32N 51°15' E 004°22'0 0.0
2014-Jul-02 07:28N 51°15' E 004°22'0 0.0
2014-Jul-02 06:30N 51°15' E 004°22'0 0.0
2014-Jul-02 05:33N 51°15' E 004°22'  
Track history (hours):
 
Tides and Currents Weather Stations Pressure Air Temp Water Temp Dewpoint Dewpoint Depression Visibility Wind Speed Wind Dir Waves Ship Positions

Marcel

Last reported at 2014-Jul-12 04:33 UTC. Time now 2014-Jul-23 15:32 UTC.
Position N 35°42' W 008°58'.
Warning: this ship's position is 11 days out of date.

Length 88 m; draft 5.6 m.

Type: Cargo ship. MMSI: 205439000.

Date/timePositionNaut miles runAvg speedWind from/ knotsBaromVisibWave heightAir tempDewpointWater temp
2014-Jul-12 04:33N 35°42' W 008°58'10 9.5
2014-Jul-12 03:33N 35°50' W 009°04'10 9.5
2014-Jul-12 02:33N 35°59' W 009°10'10 9.6
2014-Jul-12 01:33N 36°07' W 009°16'10 9.7
2014-Jul-12 00:33N 36°15' W 009°22'10 9.8
2014-Jul-11 23:33N 36°24' W 009°28'10 9.5
2014-Jul-11 22:33N 36°32' W 009°34'9 9.3
2014-Jul-11 21:32N 36°40' W 009°40'9 9.0
2014-Jul-11 20:33N 36°49' W 009°43'9 9.3
2014-Jul-11 19:33N 36°58' W 009°45'9 9.5
2014-Jul-11 18:33N 37°07' W 009°47'9 9.3
2014-Jul-11 17:33N 37°16' W 009°48'9 9.1
2014-Jul-11 16:33N 37°25' W 009°50'9 9.3
2014-Jul-11 15:33N 37°35' W 009°52'10 9.6
2014-Jul-11 14:32N 37°44' W 009°54'10 9.7
2014-Jul-11 13:33N 37°54' W 009°56'10 9.7
2014-Jul-11 12:33N 38°03' W 009°57'10 9.7
2014-Jul-11 11:33N 38°13' W 009°59'10 9.7
2014-Jul-11 10:33N 38°23' W 010°01'10 9.8
2014-Jul-11 09:33N 38°32' W 010°03'10 9.5
2014-Jul-11 08:32N 38°42' W 010°05'  
2014-Jul-09 04:08N 43°46' W 005°49'  
2014-Jul-04 17:25N 50°32' E 000°06'910.2
2014-Jul-04 16:33N 50°34' E 000°19'9 9.5
2014-Jul-04 15:33N 50°37' E 000°34'9 9.0
2014-Jul-04 14:33N 50°42' E 000°45'9 9.3
2014-Jul-04 13:33N 50°48' E 000°56'1510.5
2014-Jul-04 12:07N 50°58' E 001°14'712.0
2014-Jul-04 11:33N 51°02' E 001°23'1312.7
2014-Jul-04 10:33N 51°10' E 001°38'1211.5
2014-Jul-04 09:33N 51°19' E 001°51'9 9.4
2014-Jul-04 08:33N 51°24' E 002°03'11 9.9
2014-Jul-04 07:29N 51°21' E 002°19'9 9.3
2014-Jul-04 06:33N 51°23' E 002°33'9 9.0
2014-Jul-04 05:33N 51°22' E 002°47'9 8.8
2014-Jul-04 04:32N 51°22' E 003°02'8 8.1
2014-Jul-04 03:33N 51°23' E 003°14'8 7.9
2014-Jul-04 02:33N 51°24' E 003°27'8 8.1
2014-Jul-04 01:33N 51°25' E 003°40'9 8.9
2014-Jul-04 00:33N 51°21' E 003°53'6 6.4
2014-Jul-03 23:34N 51°23' E 004°02'9 9.1
2014-Jul-03 22:33N 51°20' E 004°16'4 4.3
2014-Jul-03 21:33N 51°17' E 004°20'0 0.0
2014-Jul-03 20:34N 51°17' E 004°20'0 0.0
2014-Jul-03 19:34N 51°17' E 004°20'2 2.4
2014-Jul-03 18:33N 51°15' E 004°22'0 0.0
2014-Jul-03 17:31N 51°15' E 004°22'0 0.0
2014-Jul-03 16:32N 51°15' E 004°22'0 0.0
2014-Jul-03 15:33N 51°15' E 004°22'0 0.0
2014-Jul-03 14:30N 51°15' E 004°22'0 0.0
2014-Jul-03 13:27N 51°15' E 004°22'0 0.0
2014-Jul-03 12:32N 51°15' E 004°22'0 0.0
2014-Jul-03 11:26N 51°15' E 004°22'0 0.0
2014-Jul-03 10:30N 51°15' E 004°22'0 0.0
2014-Jul-03 09:26N 51°15' E 004°22'0 0.0
2014-Jul-03 08:31N 51°15' E 004°22'0 0.0
2014-Jul-03 07:33N 51°15' E 004°22'0 0.1
2014-Jul-03 06:30N 51°15' E 004°22'0 0.0
2014-Jul-03 05:28N 51°15' E 004°22'0 0.0
2014-Jul-03 04:32N 51°15' E 004°22'0 0.0
2014-Jul-03 03:33N 51°15' E 004°22'0 0.0
2014-Jul-03 02:30N 51°15' E 004°22'0 0.0
2014-Jul-03 01:26N 51°15' E 004°22'0 0.0
2014-Jul-03 00:30N 51°15' E 004°22'0 0.0
2014-Jul-02 23:28N 51°15' E 004°22'0 0.0
2014-Jul-02 22:30N 51°15' E 004°22'0 0.0
2014-Jul-02 21:27N 51°15' E 004°22'0 0.0
2014-Jul-02 20:31N 51°15' E 004°22'0 0.0
2014-Jul-02 19:33N 51°15' E 004°22'0 0.0
2014-Jul-02 18:31N 51°15' E 004°22'0 0.0
2014-Jul-02 17:28N 51°15' E 004°22'0 0.0
2014-Jul-02 16:32N 51°15' E 004°22'0 0.0
2014-Jul-02 15:33N 51°15' E 004°22'0 0.0
2014-Jul-02 14:31N 51°15' E 004°22'0 0.0
2014-Jul-02 13:27N 51°15' E 004°22'0 0.0
2014-Jul-02 12:31N 51°15' E 004°22'0 0.0
2014-Jul-02 11:27N 51°15' E 004°22'0 0.0
2014-Jul-02 10:29N 51°15' E 004°22'0 0.0
2014-Jul-02 09:31N 51°15' E 004°22'0 0.0
2014-Jul-02 08:32N 51°15' E 004°22'0 0.0
2014-Jul-02 07:28N 51°15' E 004°22'0 0.0
2014-Jul-02 06:30N 51°15' E 004°22'0 0.0
2014-Jul-02 05:33N 51°15' E 004°22'  

Dump ship's entire track history